Time;durP1;ratioP1;P1;durP2;ratioP2;P2;SDS_P1;SDS_P2;PMS_P1;PMS_P2;Temp;Humidity;BMP_temperature;BMP_pressure;BME280_temperature;BME280_humidity;BME280_pressure;Samples;Min_cycle;Max_cycle;Signal;HPM_P1;HPM_P2
2021/03/13 00:01:16;;;;;;;;;;;;;;;1.04;94.54;99824.75;5073968;28;852;-75
2021/03/13 00:03:41;;;;;;;;;;;;;;;1.07;94.39;99813.28;5074094;28;1056;-75
2021/03/13 00:06:07;;;;;;;;;;;;;;;1.12;94.46;99813.16;5074189;28;1051;-75
2021/03/13 00:08:37;;;;;;;;;;;;;;;1.12;94.66;99798.75;5073656;28;1890;-75
2021/03/13 00:11:04;;;;;;;;;;;;;;;1.16;94.71;99812.53;5072652;28;873;-75
2021/03/13 00:13:30;;;;;;;;;;;;;;;1.21;94.79;99809.72;5073960;28;857;-75
2021/03/13 00:15:55;;;;;;;;;;;;;;;1.27;94.33;99808.50;5073827;28;885;-75
2021/03/13 00:18:20;;;;;;;;;;;;;;;1.29;94.39;99806.25;5073743;28;1274;-75
2021/03/13 00:20:46;;;;;;;;;;;;;;;1.33;94.32;99804.53;5074117;28;837;-75
2021/03/13 00:23:12;;;;;;;;;;;;;;;1.36;94.53;99789.53;5073810;28;940;-75
2021/03/13 00:25:38;;;;;;;;;;;;;;;1.39;94.18;99787.00;5077505;28;936;-75
2021/03/13 00:28:05;;;;;;;;;;;;;;;1.34;94.34;99789.03;5077130;28;1894;-75
2021/03/13 00:30:33;;;;;;;;;;;;;;;1.35;94.52;99777.84;5077320;28;1267;-75
2021/03/13 00:33:01;;;;;;;;;;;;;;;1.36;94.33;99775.94;5077457;28;837;-75
2021/03/13 00:35:29;;;;;;;;;;;;;;;1.28;94.58;99774.72;5077123;28;1012;-75
2021/03/13 00:37:55;;;;;;;;;;;;;;;1.30;94.36;99762.44;5076983;28;1380;-75
2021/03/13 00:40:25;;;;;;;;;;;;;;;1.28;94.61;99764.66;5077276;28;817;-75
2021/03/13 00:42:51;;;;;;;;;;;;;;;1.34;95.03;99770.00;5076016;28;1214;-75
2021/03/13 00:45:19;;;;;;;;;;;;;;;1.44;94.89;99762.38;5077417;28;995;-75
2021/03/13 00:47:45;;;;;;;;;;;;;;;1.53;94.89;99765.16;5079892;28;1902;-75
2021/03/13 00:50:12;;;;;;;;;;;;;;;1.68;94.85;99764.00;5079794;28;1290;-75
2021/03/13 00:52:38;;;;;;;;;;;;;;;1.71;94.82;99763.34;5077190;28;884;-75
2021/03/13 00:55:08;;;;;;;;;;;;;;;1.87;94.89;99761.88;5075996;28;1228;-75
2021/03/13 00:57:33;;;;;;;;;;;;;;;1.98;94.30;99762.41;5076742;28;827;-75
2021/03/13 00:59:58;;;;;;;;;;;;;;;2.03;94.02;99750.59;5076767;28;1341;-75
2021/03/13 01:02:24;;;;;;;;;;;;;;;2.02;94.30;99743.53;5076747;28;909;-75
2021/03/13 01:04:49;;;;;;;;;;;;;;;2.05;93.86;99746.41;5076863;28;969;-75
2021/03/13 01:07:15;;;;;;;;;;;;;;;2.11;94.23;99751.72;5076542;28;1963;-75
2021/03/13 01:09:41;;;;;;;;;;;;;;;2.07;94.18;99741.47;5076741;28;1262;-75
2021/03/13 01:12:06;;;;;;;;;;;;;;;2.05;94.34;99738.25;5076535;28;1039;-75
2021/03/13 01:14:32;;;;;;;;;;;;;;;1.97;94.52;99736.31;5076677;28;945;-75
2021/03/13 01:16:57;;;;;;;;;;;;;;;1.94;94.37;99736.09;5076417;28;932;-75
2021/03/13 01:19:22;;;;;;;;;;;;;;;1.82;94.41;99723.09;5076191;28;1286;-75
2021/03/13 01:21:48;;;;;;;;;;;;;;;1.82;94.52;99717.66;5075417;28;2372;-75
2021/03/13 01:24:13;;;;;;;;;;;;;;;1.73;94.70;99711.34;5077331;28;988;-75
2021/03/13 01:26:38;;;;;;;;;;;;;;;1.83;95.29;99708.34;5077358;28;1190;-75
2021/03/13 01:29:04;;;;;;;;;;;;;;;1.88;95.32;99702.78;5076715;28;1906;-75
2021/03/13 01:31:29;;;;;;;;;;;;;;;1.95;95.53;99705.06;5076165;28;822;-75
2021/03/13 01:33:55;;;;;;;;;;;;;;;2.05;94.82;99696.59;5075941;28;1078;-75
2021/03/13 01:36:20;;;;;;;;;;;;;;;2.11;94.94;99695.38;5075657;28;960;-74
2021/03/13 01:38:45;;;;;;;;;;;;;;;2.18;94.60;99684.81;5074663;28;1371;-75
2021/03/13 01:41:12;;;;;;;;;;;;;;;2.11;94.46;99684.47;5076352;28;839;-75
2021/03/13 01:43:38;;;;;;;;;;;;;;;2.16;94.16;99676.13;5076296;28;1056;-75
2021/03/13 01:46:04;;;;;;;;;;;;;;;2.18;94.59;99671.19;5075845;28;900;-75
2021/03/13 01:48:42;;;;;;;;;;;;;;;2.19;94.19;99674.72;5075524;28;1906;-75
2021/03/13 01:51:09;;;;;;;;;;;;;;;2.15;94.72;99660.91;5074501;28;1326;-75
2021/03/13 01:53:35;;;;;;;;;;;;;;;2.22;94.25;99657.75;5076118;28;884;-75
2021/03/13 01:56:00;;;;;;;;;;;;;;;2.19;94.65;99652.91;5075941;28;894;-75
2021/03/13 01:58:25;;;;;;;;;;;;;;;2.19;94.50;99652.91;5075472;28;1345;-74
2021/03/13 02:00:51;;;;;;;;;;;;;;;2.32;94.19;99651.19;5075650;28;912;-75
2021/03/13 02:03:17;;;;;;;;;;;;;;;2.37;93.60;99640.13;5076040;28;809;-75
2021/03/13 02:05:44;;;;;;;;;;;;;;;2.32;93.87;99641.09;5075408;28;833;-75
2021/03/13 02:08:21;;;;;;;;;;;;;;;2.43;93.81;99627.97;5075433;28;1905;-75
2021/03/13 02:11:05;;;;;;;;;;;;;;;2.50;93.21;99625.56;5075791;28;880;-75
2021/03/13 02:13:44;;;;;;;;;;;;;;;2.44;92.87;99622.22;5075946;28;818;-75
2021/03/13 02:16:14;;;;;;;;;;;;;;;2.47;92.96;99622.69;5075290;28;957;-75
2021/03/13 02:18:45;;;;;;;;;;;;;;;2.49;92.45;99613.06;5075489;28;1226;-75
2021/03/13 02:21:34;;;;;;;;;;;;;;;2.54;92.36;99612.91;5075336;28;880;-75
2021/03/13 02:24:20;;;;;;;;;;;;;;;2.55;92.61;99611.78;5075508;28;1012;-75
2021/03/13 02:27:11;;;;;;;;;;;;;;;2.48;92.22;99610.69;5076910;28;948;-75
2021/03/13 02:29:59;;;;;;;;;;;;;;;2.49;92.92;99593.97;5079861;28;1456;-76
2021/03/13 02:32:38;;;;;;;;;;;;;;;2.65;92.19;99591.59;5079667;28;845;-75
2021/03/13 02:35:08;;;;;;;;;;;;;;;2.60;92.42;99589.03;5076155;28;905;-75
2021/03/13 02:37:38;;;;;;;;;;;;;;;2.53;92.17;99586.78;5080457;28;917;-75
2021/03/13 02:40:07;;;;;;;;;;;;;;;2.46;92.13;99578.28;5079980;28;1443;-75
2021/03/13 02:42:42;;;;;;;;;;;;;;;2.46;92.96;99564.66;5076000;28;967;-75
2021/03/13 02:45:10;;;;;;;;;;;;;;;2.49;92.77;99571.38;5076908;28;849;-75
2021/03/13 02:47:40;;;;;;;;;;;;;;;2.42;92.48;99567.22;5074605;28;1874;-76
2021/03/13 02:50:07;;;;;;;;;;;;;;;2.47;92.63;99549.91;5075414;28;1322;-75
2021/03/13 02:52:34;;;;;;;;;;;;;;;2.52;92.42;99546.22;5077150;28;959;-76
2021/03/13 02:55:02;;;;;;;;;;;;;;;2.62;92.51;99543.19;5074901;28;930;-75
2021/03/13 02:57:29;;;;;;;;;;;;;;;2.66;92.13;99535.94;5074707;28;911;-76
2021/03/13 02:59:56;;;;;;;;;;;;;;;2.75;91.24;99535.94;5074870;28;1368;-75
2021/03/13 03:02:22;;;;;;;;;;;;;;;2.79;91.24;99526.00;5073825;28;1396;-76
2021/03/13 03:04:49;;;;;;;;;;;;;;;2.86;91.07;99522.78;5076615;28;870;-76
2021/03/13 03:07:17;;;;;;;;;;;;;;;2.80;91.24;99511.22;5075684;28;1889;-76
2021/03/13 03:09:44;;;;;;;;;;;;;;;2.84;90.63;99517.66;5074638;28;1345;-76
2021/03/13 03:12:11;;;;;;;;;;;;;;;2.79;91.34;99515.91;5074601;28;802;-76
2021/03/13 03:14:40;;;;;;;;;;;;;;;2.83;91.29;99508.66;5074745;28;839;-76
2021/03/13 03:17:07;;;;;;;;;;;;;;;2.78;91.67;99503.38;5074387;28;1007;-75
2021/03/13 03:19:34;;;;;;;;;;;;;;;2.79;91.21;99499.53;5074448;28;1384;-76
2021/03/13 03:22:01;;;;;;;;;;;;;;;2.79;91.04;99494.09;5073465;28;940;-76
2021/03/13 03:24:29;;;;;;;;;;;;;;;2.90;90.86;99480.09;5089836;28;1195;-76
2021/03/13 03:26:54;;;;;;;;;;;;;;;2.87;91.33;99481.53;5074580;28;794;-75
2021/03/13 03:29:20;;;;;;;;;;;;;;;2.99;89.59;99481.69;5074088;28;1893;-76
2021/03/13 03:31:45;;;;;;;;;;;;;;;2.93;90.64;99469.34;5074602;28;794;-76
2021/03/13 03:34:11;;;;;;;;;;;;;;;2.86;91.13;99468.25;5074245;28;852;-76
2021/03/13 03:36:36;;;;;;;;;;;;;;;3.00;90.76;99466.91;5074445;28;928;-76
2021/03/13 03:39:02;;;;;;;;;;;;;;;3.02;90.69;99458.41;5074210;28;1274;-76
2021/03/13 03:41:32;;;;;;;;;;;;;;;3.11;89.72;99450.19;5074394;28;995;-76
2021/03/13 03:44:03;;;;;;;;;;;;;;;3.12;90.14;99436.22;5073876;28;1082;-76
2021/03/13 03:46:28;;;;;;;;;;;;;;;3.16;89.81;99433.63;5074267;28;984;-76
2021/03/13 03:48:56;;;;;;;;;;;;;;;3.21;89.72;99433.47;5073889;28;1898;-76
2021/03/13 03:51:25;;;;;;;;;;;;;;;3.18;90.03;99421.28;5074125;28;995;-76
2021/03/13 03:53:52;;;;;;;;;;;;;;;3.20;90.00;99423.66;5074143;28;1066;-76
2021/03/13 03:56:21;;;;;;;;;;;;;;;3.28;88.96;99411.91;5074311;28;830;-76
2021/03/13 03:58:48;;;;;;;;;;;;;;;3.24;89.62;99410.97;5074486;28;1266;-76
2021/03/13 04:01:15;;;;;;;;;;;;;;;3.23;90.36;99412.09;5078144;28;883;-76
2021/03/13 04:03:51;;;;;;;;;;;;;;;3.33;89.40;99398.06;5078014;28;933;-76
2021/03/13 04:06:18;;;;;;;;;;;;;;;3.45;88.70;99396.56;5077988;28;829;-76
2021/03/13 04:08:46;;;;;;;;;;;;;;;3.43;89.02;99391.44;5078019;28;1893;-76
2021/03/13 04:11:16;;;;;;;;;;;;;;;3.46;88.82;99377.16;5077970;28;896;-76
2021/03/13 04:13:43;;;;;;;;;;;;;;;3.55;88.25;99380.59;5077670;28;1035;-76
2021/03/13 04:16:11;;;;;;;;;;;;;;;3.60;88.42;99373.34;5077671;28;751;-76
2021/03/13 04:18:37;;;;;;;;;;;;;;;3.58;88.48;99369.03;5077473;28;1274;-76
2021/03/13 04:21:02;;;;;;;;;;;;;;;3.59;88.33;99361.63;5077977;28;1007;-76
2021/03/13 04:23:29;;;;;;;;;;;;;;;3.67;88.08;99351.75;5078253;28;881;-76
2021/03/13 04:25:55;;;;;;;;;;;;;;;3.68;88.55;99342.47;5078971;28;817;-76
2021/03/13 04:28:21;;;;;;;;;;;;;;;3.69;88.03;99346.78;5077477;28;2024;-75
2021/03/13 04:30:50;;;;;;;;;;;;;;;3.74;87.81;99341.91;5077798;28;793;-76
2021/03/13 04:33:20;;;;;;;;;;;;;;;3.70;88.75;99323.81;5077571;28;976;-75
2021/03/13 04:35:47;;;;;;;;;;;;;;;3.71;88.74;99322.69;5077495;28;915;-75
2021/03/13 04:38:18;;;;;;;;;;;;;;;3.66;89.63;99306.50;5076046;28;1514;-75
2021/03/13 04:40:45;;;;;;;;;;;;;;;3.62;90.04;99302.88;5077677;28;849;-76
2021/03/13 04:43:15;;;;;;;;;;;;;;;3.62;89.85;99295.47;5078746;28;869;-76
2021/03/13 04:45:42;;;;;;;;;;;;;;;3.55;90.94;99289.75;5079895;28;845;-75
2021/03/13 04:48:08;;;;;;;;;;;;;;;3.54;91.17;99278.00;5077783;28;1878;-76
2021/03/13 04:50:34;;;;;;;;;;;;;;;3.62;90.38;99267.38;5077091;28;797;-75
2021/03/13 04:52:59;;;;;;;;;;;;;;;3.57;91.22;99265.63;5077028;28;853;-76
2021/03/13 04:55:24;;;;;;;;;;;;;;;3.55;90.90;99267.91;5076914;28;849;-75
2021/03/13 04:57:50;;;;;;;;;;;;;;;3.51;92.21;99258.78;5076908;28;853;-76
2021/03/13 05:00:17;;;;;;;;;;;;;;;3.56;91.34;99251.19;5076701;28;1369;-75
2021/03/13 05:02:42;;;;;;;;;;;;;;;3.55;91.69;99244.13;5076805;28;814;-76
2021/03/13 05:05:09;;;;;;;;;;;;;;;3.52;92.18;99233.09;5076856;28;973;-75
2021/03/13 05:07:35;;;;;;;;;;;;;;;3.53;92.03;99216.38;5076482;28;1894;-75
2021/03/13 05:10:01;;;;;;;;;;;;;;;3.45;92.52;99219.19;5075853;28;1369;-75
2021/03/13 05:12:26;;;;;;;;;;;;;;;3.47;92.81;99215.00;5076024;28;1062;-75
2021/03/13 05:14:51;;;;;;;;;;;;;;;3.44;93.61;99209.41;5076611;28;863;-75
2021/03/13 05:17:17;;;;;;;;;;;;;;;3.37;93.80;99194.38;5076443;28;932;-75
2021/03/13 05:19:42;;;;;;;;;;;;;;;3.42;94.25;99192.56;5076506;28;1356;-75
2021/03/13 05:22:09;;;;;;;;;;;;;;;3.39;93.98;99181.22;5076532;28;992;-75
2021/03/13 05:24:34;;;;;;;;;;;;;;;3.36;94.14;99167.44;5076371;28;802;-74
2021/03/13 05:26:59;;;;;;;;;;;;;;;3.32;94.28;99166.50;5076355;28;917;-74
2021/03/13 05:29:25;;;;;;;;;;;;;;;3.32;94.62;99156.41;5076090;28;1890;-74
2021/03/13 05:31:50;;;;;;;;;;;;;;;3.34;94.11;99145.13;5076171;28;996;-74
2021/03/13 05:34:15;;;;;;;;;;;;;;;3.29;94.75;99139.91;5076435;28;881;-74
2021/03/13 05:36:41;;;;;;;;;;;;;;;3.29;95.26;99129.00;5076373;28;841;-74
2021/03/13 05:39:06;;;;;;;;;;;;;;;3.28;94.64;99124.66;5076195;28;1372;-74
2021/03/13 05:41:35;;;;;;;;;;;;;;;3.26;95.45;99111.34;5076054;28;809;-75
2021/03/13 05:44:00;;;;;;;;;;;;;;;3.28;95.06;99102.84;5077000;28;856;-74
2021/03/13 05:46:34;;;;;;;;;;;;;;;3.24;94.92;99091.03;5076208;28;848;-73
2021/03/13 05:49:05;;;;;;;;;;;;;;;3.22;95.85;99087.81;5075972;28;1961;-73
2021/03/13 05:51:36;;;;;;;;;;;;;;;3.25;95.51;99081.69;5075944;28;905;-73
2021/03/13 05:54:07;;;;;;;;;;;;;;;3.23;95.13;99075.78;5075741;28;853;-74
2021/03/13 05:56:34;;;;;;;;;;;;;;;3.19;96.19;99057.34;5075945;28;881;-74
2021/03/13 05:59:01;;;;;;;;;;;;;;;3.21;96.20;99046.09;5075925;28;1353;-73
2021/03/13 06:01:28;;;;;;;;;;;;;;;3.20;96.23;99037.13;5075550;28;821;-74
2021/03/13 06:03:54;;;;;;;;;;;;;;;3.22;96.21;99031.34;5091324;28;1208;-74
2021/03/13 06:06:25;;;;;;;;;;;;;;;3.24;96.45;99014.63;5075671;28;1849;-74
2021/03/13 06:08:51;;;;;;;;;;;;;;;3.24;95.72;99007.25;5075180;28;1893;-73
2021/03/13 06:11:19;;;;;;;;;;;;;;;3.29;95.45;98995.31;5075693;28;888;-74
2021/03/13 06:13:44;;;;;;;;;;;;;;;3.26;96.11;98987.81;5075564;28;773;-74
2021/03/13 06:16:10;;;;;;;;;;;;;;;3.29;95.89;98985.19;5075767;28;909;-74
2021/03/13 06:18:47;;;;;;;;;;;;;;;3.29;96.45;98981.69;5073810;28;1388;-74
2021/03/13 06:21:21;;;;;;;;;;;;;;;3.28;95.98;98953.59;5075109;28;939;-74
2021/03/13 06:23:46;;;;;;;;;;;;;;;3.30;96.57;98936.88;5075478;28;853;-74
2021/03/13 06:26:12;;;;;;;;;;;;;;;3.28;96.56;98922.78;5075128;28;1000;-74
2021/03/13 06:28:37;;;;;;;;;;;;;;;3.26;96.22;98935.97;5075545;28;1957;-74
2021/03/13 06:31:05;;;;;;;;;;;;;;;3.30;96.37;98898.69;5075091;28;868;-74
2021/03/13 06:33:32;;;;;;;;;;;;;;;3.30;96.11;98920.50;5074957;28;945;-74
2021/03/13 06:36:04;;;;;;;;;;;;;;;3.29;95.80;98903.34;5075018;28;809;-74
2021/03/13 06:38:31;;;;;;;;;;;;;;;3.29;95.72;98899.84;5074969;28;1361;-73
2021/03/13 06:41:12;;;;;;;;;;;;;;;3.29;96.86;98888.94;5075337;28;833;-74
2021/03/13 06:43:40;;;;;;;;;;;;;;;3.32;96.22;98877.31;5075052;28;726;-74
2021/03/13 06:46:08;;;;;;;;;;;;;;;3.33;96.63;98863.34;5074895;28;849;-74
2021/03/13 06:48:35;;;;;;;;;;;;;;;3.34;95.98;98872.31;5073420;28;1957;-74
2021/03/13 06:51:26;;;;;;;;;;;;;;;3.36;96.19;98857.19;5075293;28;850;-74
2021/03/13 06:54:18;;;;;;;;;;;;;;;3.40;96.72;98843.66;5074949;28;821;-74
2021/03/13 06:56:59;;;;;;;;;;;;;;;3.41;96.10;98861.63;5073764;28;1087;-74
2021/03/13 06:59:31;;;;;;;;;;;;;;;3.43;95.91;98842.19;5075121;28;1306;-74
2021/03/13 07:02:20;;;;;;;;;;;;;;;3.45;95.99;98831.72;5075230;28;939;-74
2021/03/13 07:04:46;;;;;;;;;;;;;;;3.43;96.43;98834.00;5075202;28;1243;-73
2021/03/13 07:07:28;;;;;;;;;;;;;;;3.48;96.12;98822.81;5075748;28;731;-74
2021/03/13 07:09:55;;;;;;;;;;;;;;;3.50;96.14;98796.78;5075628;28;1294;-73
2021/03/13 07:12:35;;;;;;;;;;;;;;;3.51;96.39;98803.84;5074840;28;857;-73
2021/03/13 07:15:19;;;;;;;;;;;;;;;3.50;96.49;98806.94;5074947;28;778;-74
2021/03/13 07:17:44;;;;;;;;;;;;;;;3.51;97.17;98794.84;5074621;28;802;-74
2021/03/13 07:20:10;;;;;;;;;;;;;;;3.53;96.80;98787.91;5074648;28;1332;-74
2021/03/13 07:22:37;;;;;;;;;;;;;;;3.56;96.85;98781.78;5074777;28;880;-74
2021/03/13 07:25:05;;;;;;;;;;;;;;;3.62;96.62;98763.22;5074775;28;1342;-73
2021/03/13 07:27:33;;;;;;;;;;;;;;;3.60;96.42;98761.97;5073293;28;1894;-74
2021/03/13 07:30:00;;;;;;;;;;;;;;;3.64;97.05;98762.88;5073572;28;1376;-74
2021/03/13 07:32:27;;;;;;;;;;;;;;;3.67;97.24;98759.41;5074719;28;817;-74
2021/03/13 07:35:01;;;;;;;;;;;;;;;3.72;96.51;98756.44;5077091;28;994;-74
2021/03/13 07:37:31;;;;;;;;;;;;;;;3.71;96.39;98757.59;5078724;28;769;-74
2021/03/13 07:39:59;;;;;;;;;;;;;;;3.73;96.88;98756.09;5077367;28;1278;-75
2021/03/13 07:42:25;;;;;;;;;;;;;;;3.77;97.22;98756.19;5078734;28;841;-73
2021/03/13 07:44:50;;;;;;;;;;;;;;;3.78;97.21;98746.09;5078917;28;894;-73
2021/03/13 07:47:19;;;;;;;;;;;;;;;3.79;96.80;98743.00;5078367;28;855;-74
2021/03/13 07:49:46;;;;;;;;;;;;;;;3.80;97.42;98744.56;5078654;28;1344;-74
2021/03/13 07:52:16;;;;;;;;;;;;;;;3.87;97.31;98741.25;5078429;28;879;-75
2021/03/13 07:54:48;;;;;;;;;;;;;;;3.91;97.15;98739.38;5078409;28;865;-74
2021/03/13 07:57:15;;;;;;;;;;;;;;;3.93;97.18;98751.56;5077944;28;837;-74
2021/03/13 07:59:48;;;;;;;;;;;;;;;3.98;97.33;98755.19;5078013;28;1353;-74
2021/03/13 08:02:32;;;;;;;;;;;;;;;4.00;97.15;98734.56;5078042;28;880;-75
2021/03/13 08:04:57;;;;;;;;;;;;;;;4.10;96.71;98755.09;5078189;28;860;-73
2021/03/13 08:07:23;;;;;;;;;;;;;;;4.14;96.84;98775.13;5077560;28;1965;-74
2021/03/13 08:09:49;;;;;;;;;;;;;;;4.19;95.84;98783.06;5077781;28;1282;-74
2021/03/13 08:12:40;;;;;;;;;;;;;;;4.23;95.17;98792.13;5077759;28;797;-74
2021/03/13 08:15:29;;;;;;;;;;;;;;;4.29;94.94;98781.72;5077882;28;809;-74
2021/03/13 08:17:54;;;;;;;;;;;;;;;4.25;93.43;98805.44;5074173;28;1670;-74
2021/03/13 08:20:29;;;;;;;;;;;;;;;4.26;93.48;98772.31;5077780;28;797;-74
2021/03/13 08:23:12;;;;;;;;;;;;;;;4.21;92.58;98763.59;5078113;28;868;-74
2021/03/13 08:25:55;;;;;;;;;;;;;;;4.20;92.94;98767.44;5078174;28;944;-74
2021/03/13 08:28:45;;;;;;;;;;;;;;;4.19;94.04;98779.50;5078975;28;1893;-73
2021/03/13 08:31:27;;;;;;;;;;;;;;;4.27;93.15;98773.09;5077613;28;957;-74
2021/03/13 08:34:19;;;;;;;;;;;;;;;4.38;92.95;98774.16;5078528;28;855;-74
2021/03/13 08:36:46;;;;;;;;;;;;;;;4.40;92.16;98776.56;5074880;28;1308;-74
2021/03/13 08:39:21;;;;;;;;;;;;;;;4.40;91.38;98771.88;5077222;28;1270;-74
2021/03/13 08:41:55;;;;;;;;;;;;;;;4.35;92.02;98774.09;5077444;28;1062;-74
2021/03/13 08:44:20;;;;;;;;;;;;;;;4.32;92.49;98783.75;5077344;28;869;-74
2021/03/13 08:47:09;;;;;;;;;;;;;;;4.40;91.07;98777.34;5077644;28;863;-74
2021/03/13 08:49:47;;;;;;;;;;;;;;;4.68;90.96;98768.25;5077485;28;1890;-74
2021/03/13 08:52:16;;;;;;;;;;;;;;;5.26;89.84;98765.63;5077227;28;857;-74
2021/03/13 08:54:43;;;;;;;;;;;;;;;6.28;87.74;98782.91;5077014;28;847;-74
2021/03/13 08:57:14;;;;;;;;;;;;;;;7.27;87.40;98768.34;5076693;28;841;-74
2021/03/13 08:59:45;;;;;;;;;;;;;;;8.07;81.00;98761.81;5076730;28;1341;-74
2021/03/13 09:02:17;;;;;;;;;;;;;;;6.40;81.88;98766.25;5077039;28;897;-74
2021/03/13 09:04:45;;;;;;;;;;;;;;;5.97;84.90;98756.47;5076708;28;907;-74
2021/03/13 09:07:12;;;;;;;;;;;;;;;6.06;84.10;98778.19;5076659;28;963;-75
2021/03/13 09:09:39;;;;;;;;;;;;;;;5.66;84.75;98771.94;5076492;28;1956;-75
2021/03/13 09:12:07;;;;;;;;;;;;;;;9.39;77.37;98762.00;5076566;28;1046;-74
2021/03/13 09:14:34;;;;;;;;;;;;;;;12.86;65.66;98735.25;5076610;28;836;-74
2021/03/13 09:17:20;;;;;;;;;;;;;;;13.77;61.61;98739.38;5076385;28;837;-74
2021/03/13 09:19:47;;;;;;;;;;;;;;;14.41;59.73;98742.44;5076774;28;1357;-74
2021/03/13 09:22:24;;;;;;;;;;;;;;;13.16;59.98;98748.38;5076578;28;852;-74
2021/03/13 09:24:54;;;;;;;;;;;;;;;9.83;66.55;98749.22;5076316;28;973;-74
2021/03/13 09:27:30;;;;;;;;;;;;;;;8.50;71.29;98761.44;5076022;28;1008;-74
2021/03/13 09:29:57;;;;;;;;;;;;;;;7.44;73.83;98747.78;5076612;28;1396;-74
2021/03/13 09:32:24;;;;;;;;;;;;;;;7.88;74.38;98740.81;5076315;28;872;-74
2021/03/13 09:34:53;;;;;;;;;;;;;;;7.45;75.11;98741.09;5075892;28;945;-74
2021/03/13 09:37:22;;;;;;;;;;;;;;;6.80;76.63;98747.69;5076138;28;810;-74
2021/03/13 09:39:50;;;;;;;;;;;;;;;6.45;77.04;98762.41;5076428;28;1258;-74
2021/03/13 09:42:21;;;;;;;;;;;;;;;6.58;76.96;98760.28;5076273;28;1044;-73
2021/03/13 09:44:52;;;;;;;;;;;;;;;8.68;71.16;98737.59;5075955;28;829;-74
2021/03/13 09:47:33;;;;;;;;;;;;;;;8.89;70.72;98744.44;5075474;28;1040;-74
2021/03/13 09:50:01;;;;;;;;;;;;;;;8.75;67.14;98745.13;5075803;28;1404;-74
2021/03/13 09:52:34;;;;;;;;;;;;;;;8.10;67.92;98739.84;5076055;28;717;-74
2021/03/13 09:55:01;;;;;;;;;;;;;;;7.66;69.55;98739.78;5075863;28;881;-74
2021/03/13 09:57:27;;;;;;;;;;;;;;;7.51;68.41;98745.09;5074602;28;928;-74
2021/03/13 09:59:54;;;;;;;;;;;;;;;6.99;69.75;98744.03;5075370;28;1352;-73
2021/03/13 10:02:23;;;;;;;;;;;;;;;11.00;61.07;98729.56;5075519;28;809;-74
2021/03/13 10:04:50;;;;;;;;;;;;;;;14.14;53.00;98728.59;5075609;28;939;-73
2021/03/13 10:07:16;;;;;;;;;;;;;;;14.93;46.39;98703.09;5075129;28;896;-74
2021/03/13 10:10:00;;;;;;;;;;;;;;;15.58;45.76;98712.97;5075218;28;1962;-74
2021/03/13 10:12:32;;;;;;;;;;;;;;;15.08;45.97;98706.38;5075153;28;805;-74
2021/03/13 10:15:15;;;;;;;;;;;;;;;12.59;48.08;98695.13;5075327;28;848;-74
2021/03/13 10:17:59;;;;;;;;;;;;;;;10.08;52.03;98713.41;5073983;28;1455;-74
2021/03/13 10:20:34;;;;;;;;;;;;;;;8.73;56.71;98728.22;5075201;28;773;-74
2021/03/13 10:23:19;;;;;;;;;;;;;;;8.54;57.49;98718.25;5075199;28;860;-74
2021/03/13 10:25:54;;;;;;;;;;;;;;;11.40;50.10;98692.34;5075353;28;1019;-74
2021/03/13 10:28:19;;;;;;;;;;;;;;;11.42;49.45;98680.88;5075418;28;1886;-74
2021/03/13 10:30:46;;;;;;;;;;;;;;;12.93;46.21;98686.09;5075127;28;803;-75
2021/03/13 10:33:12;;;;;;;;;;;;;;;13.25;43.65;98689.72;5075305;28;1035;-75
2021/03/13 10:35:38;;;;;;;;;;;;;;;11.86;47.77;98671.16;5073715;28;858;-73
2021/03/13 10:38:17;;;;;;;;;;;;;;;9.29;51.46;98771.03;5075185;28;1380;-75
2021/03/13 10:40:46;;;;;;;;;;;;;;;8.34;56.14;98712.97;5075368;28;841;-73
2021/03/13 10:43:17;;;;;;;;;;;;;;;8.14;57.42;98720.63;5075050;28;847;-74
2021/03/13 10:46:03;;;;;;;;;;;;;;;8.73;56.49;98715.22;5075303;28;868;-73
2021/03/13 10:48:31;;;;;;;;;;;;;;;12.88;45.71;98694.84;5074740;28;1897;-73
2021/03/13 10:50:58;;;;;;;;;;;;;;;11.44;46.91;98706.16;5074974;28;895;-73
2021/03/13 10:53:37;;;;;;;;;;;;;;;9.71;51.19;98703.50;5075102;28;805;-73
2021/03/13 10:56:07;;;;;;;;;;;;;;;9.18;53.57;98717.84;5075212;28;798;-73
2021/03/13 10:58:37;;;;;;;;;;;;;;;9.19;55.16;98713.94;5074884;28;1369;-73
2021/03/13 11:01:05;;;;;;;;;;;;;;;13.45;44.27;98712.84;5075152;28;959;-73
2021/03/13 11:03:31;;;;;;;;;;;;;;;14.85;41.77;98726.66;5075060;28;864;-73
2021/03/13 11:05:56;;;;;;;;;;;;;;;15.90;40.00;98717.88;5075330;28;868;-73
2021/03/13 11:08:25;;;;;;;;;;;;;;;15.39;41.03;98715.31;5073877;28;1953;-73
2021/03/13 11:10:50;;;;;;;;;;;;;;;15.32;41.87;98693.22;5074684;28;837;-73
2021/03/13 11:13:17;;;;;;;;;;;;;;;15.73;40.36;98711.44;5074937;28;959;-73
2021/03/13 11:15:43;;;;;;;;;;;;;;;15.01;41.94;98706.53;5075060;28;901;-71
2021/03/13 11:18:08;;;;;;;;;;;;;;;15.18;40.60;98701.84;5074238;28;1247;-71
2021/03/13 11:20:35;;;;;;;;;;;;;;;14.98;41.21;98682.38;5074870;28;817;-71
2021/03/13 11:23:01;;;;;;;;;;;;;;;13.80;43.26;98693.41;5074576;28;833;-71
2021/03/13 11:25:26;;;;;;;;;;;;;;;11.14;49.89;98701.13;5074623;28;833;-71
2021/03/13 11:27:53;;;;;;;;;;;;;;;9.23;56.08;98723.78;5074302;28;1882;-73
2021/03/13 11:30:19;;;;;;;;;;;;;;;8.20;62.60;98726.56;5074667;28;832;-73
2021/03/13 11:32:44;;;;;;;;;;;;;;;7.48;64.82;98736.81;5074575;28;897;-73
2021/03/13 11:35:10;;;;;;;;;;;;;;;7.40;67.41;98746.13;5074644;28;842;-73
2021/03/13 11:37:36;;;;;;;;;;;;;;;7.46;66.79;98741.91;5074904;28;876;-73
2021/03/13 11:40:08;;;;;;;;;;;;;;;6.94;67.41;98755.34;5074811;28;1368;-73
2021/03/13 11:42:33;;;;;;;;;;;;;;;6.99;69.23;98751.47;5073574;28;1210;-73
2021/03/13 11:44:59;;;;;;;;;;;;;;;10.47;59.29;98754.06;5078150;28;967;-74
2021/03/13 11:47:26;;;;;;;;;;;;;;;12.05;53.36;98716.91;5077913;28;999;-75
2021/03/13 11:49:52;;;;;;;;;;;;;;;10.02;57.71;98755.53;5078246;28;1961;-74
2021/03/13 11:52:18;;;;;;;;;;;;;;;8.44;64.49;98739.78;5078300;28;845;-74
2021/03/13 11:54:48;;;;;;;;;;;;;;;7.09;70.47;98748.88;5078751;28;829;-74
2021/03/13 11:57:16;;;;;;;;;;;;;;;6.29;72.17;98748.03;5075766;28;852;-74
2021/03/13 11:59:48;;;;;;;;;;;;;;;5.95;72.63;98742.31;5072925;28;1423;-73
2021/03/13 12:02:15;;;;;;;;;;;;;;;6.06;73.35;98718.69;5074276;28;908;-73
2021/03/13 12:04:42;;;;;;;;;;;;;;;6.16;69.26;98711.78;5074013;28;1055;-73
2021/03/13 12:07:08;;;;;;;;;;;;;;;6.78;68.58;98708.84;5072758;28;944;-74
2021/03/13 12:09:34;;;;;;;;;;;;;;;7.74;65.60;98718.69;5073121;28;1905;-73
2021/03/13 12:12:00;;;;;;;;;;;;;;;7.99;63.42;98716.94;5073990;28;864;-73
2021/03/13 12:14:27;;;;;;;;;;;;;;;8.21;61.32;98715.19;5073962;28;896;-73
2021/03/13 12:16:53;;;;;;;;;;;;;;;7.39;64.12;98715.16;5073995;28;1063;-74
2021/03/13 12:19:18;;;;;;;;;;;;;;;6.89;66.85;98739.19;5073982;28;1274;-73
2021/03/13 12:21:43;;;;;;;;;;;;;;;6.68;68.19;98714.97;5077827;28;1070;-73
2021/03/13 12:24:09;;;;;;;;;;;;;;;6.46;68.88;98744.03;5077998;28;814;-73
2021/03/13 12:26:34;;;;;;;;;;;;;;;5.94;69.70;98733.31;5077927;28;971;-73
2021/03/13 12:29:01;;;;;;;;;;;;;;;5.31;75.82;98741.88;5077703;28;1930;-73
2021/03/13 12:31:27;;;;;;;;;;;;;;;4.71;80.60;98734.72;5077555;28;841;-73
2021/03/13 12:33:52;;;;;;;;;;;;;;;4.45;81.87;98719.69;5077100;28;1008;-72
2021/03/13 12:36:17;;;;;;;;;;;;;;;4.19;82.68;98708.50;5077189;28;939;-72
2021/03/13 12:38:44;;;;;;;;;;;;;;;4.25;83.55;98713.34;5077225;28;1242;-72
2021/03/13 12:41:09;;;;;;;;;;;;;;;4.50;82.76;98718.63;5077274;28;912;-72
2021/03/13 12:43:35;;;;;;;;;;;;;;;8.12;73.89;98711.97;5077108;28;968;-72
2021/03/13 12:46:01;;;;;;;;;;;;;;;9.96;62.43;98700.00;5077076;28;790;-72
2021/03/13 12:48:27;;;;;;;;;;;;;;;8.05;64.98;98726.44;5076883;28;1893;-72
2021/03/13 12:50:53;;;;;;;;;;;;;;;8.96;65.91;98709.50;5077954;28;821;-72
2021/03/13 12:53:18;;;;;;;;;;;;;;;10.01;59.67;98718.91;5078181;28;924;-71
2021/03/13 12:55:44;;;;;;;;;;;;;;;10.21;58.24;98707.50;5078305;28;838;-72
2021/03/13 12:58:09;;;;;;;;;;;;;;;10.06;59.26;98698.44;5077492;28;1230;-72
2021/03/13 13:00:34;;;;;;;;;;;;;;;10.08;59.63;98696.09;5076798;28;865;-72
2021/03/13 13:03:02;;;;;;;;;;;;;;;10.01;59.21;98685.84;5077055;28;805;-72
2021/03/13 13:05:28;;;;;;;;;;;;;;;9.01;61.39;98691.81;5076728;28;932;-72
2021/03/13 13:07:53;;;;;;;;;;;;;;;7.49;65.09;98700.75;5076618;28;1890;-72
2021/03/13 13:10:19;;;;;;;;;;;;;;;6.35;69.58;98708.19;5076695;28;1007;-71
2021/03/13 13:12:45;;;;;;;;;;;;;;;5.82;73.98;98714.31;5076552;28;845;-71
2021/03/13 13:15:11;;;;;;;;;;;;;;;5.12;77.69;98713.34;5076808;28;996;-71
2021/03/13 13:17:37;;;;;;;;;;;;;;;4.92;80.93;98706.28;5076292;28;987;-72
2021/03/13 13:20:10;;;;;;;;;;;;;;;4.79;81.50;98703.66;5076515;28;1298;-71
2021/03/13 13:22:39;;;;;;;;;;;;;;;4.54;80.07;98702.31;5076926;28;853;-71